sensor_id;sensor_type;location;lat;lon;timestamp;P1;durP1;ratioP1;P2;durP2;ratioP2
34278;SDS011;20538;51.528;9.942;2023-05-06T00:00:04;19.15;;;12.40;;
34278;SDS011;20538;51.528;9.942;2023-05-06T00:02:30;20.70;;;13.32;;
34278;SDS011;20538;51.528;9.942;2023-05-06T00:04:56;18.92;;;13.15;;
34278;SDS011;20538;51.528;9.942;2023-05-06T00:07:22;19.33;;;13.27;;
34278;SDS011;20538;51.528;9.942;2023-05-06T00:09:47;20.45;;;13.75;;
34278;SDS011;20538;51.528;9.942;2023-05-06T00:12:13;20.52;;;13.55;;
34278;SDS011;20538;51.528;9.942;2023-05-06T00:14:39;26.80;;;14.98;;
34278;SDS011;20538;51.528;9.942;2023-05-06T00:17:05;23.05;;;15.55;;
34278;SDS011;20538;51.528;9.942;2023-05-06T00:19:31;22.50;;;15.10;;
34278;SDS011;20538;51.528;9.942;2023-05-06T00:21:57;25.33;;;15.95;;
34278;SDS011;20538;51.528;9.942;2023-05-06T00:24:23;31.52;;;17.30;;
34278;SDS011;20538;51.528;9.942;2023-05-06T00:26:48;26.27;;;17.02;;
34278;SDS011;20538;51.528;9.942;2023-05-06T00:29:14;28.25;;;18.48;;
34278;SDS011;20538;51.528;9.942;2023-05-06T00:31:40;29.10;;;18.00;;
34278;SDS011;20538;51.528;9.942;2023-05-06T00:34:06;27.60;;;18.83;;
34278;SDS011;20538;51.528;9.942;2023-05-06T00:36:32;30.17;;;20.08;;
34278;SDS011;20538;51.528;9.942;2023-05-06T00:38:58;27.20;;;18.58;;
34278;SDS011;20538;51.528;9.942;2023-05-06T00:41:23;28.05;;;19.23;;
34278;SDS011;20538;51.528;9.942;2023-05-06T00:43:50;29.25;;;19.67;;
34278;SDS011;20538;51.528;9.942;2023-05-06T00:46:15;29.52;;;20.13;;
34278;SDS011;20538;51.528;9.942;2023-05-06T00:48:41;32.88;;;20.40;;
34278;SDS011;20538;51.528;9.942;2023-05-06T00:51:08;31.20;;;19.55;;
34278;SDS011;20538;51.528;9.942;2023-05-06T00:53:35;30.65;;;20.85;;
34278;SDS011;20538;51.528;9.942;2023-05-06T00:56:02;32.20;;;20.17;;
34278;SDS011;20538;51.528;9.942;2023-05-06T00:58:28;33.80;;;21.02;;
34278;SDS011;20538;51.528;9.942;2023-05-06T01:00:54;33.85;;;21.77;;
34278;SDS011;20538;51.528;9.942;2023-05-06T01:03:19;35.10;;;22.40;;
34278;SDS011;20538;51.528;9.942;2023-05-06T01:06:08;37.00;;;22.08;;
34278;SDS011;20538;51.528;9.942;2023-05-06T01:14:19;34.58;;;22.88;;
34278;SDS011;20538;51.528;9.942;2023-05-06T01:17:06;34.20;;;21.05;;
34278;SDS011;20538;51.528;9.942;2023-05-06T01:19:47;36.28;;;20.98;;
34278;SDS011;20538;51.528;9.942;2023-05-06T01:22:14;34.47;;;20.67;;
34278;SDS011;20538;51.528;9.942;2023-05-06T01:24:41;32.33;;;20.52;;
34278;SDS011;20538;51.528;9.942;2023-05-06T01:27:09;28.42;;;18.92;;
34278;SDS011;20538;51.528;9.942;2023-05-06T01:29:36;28.80;;;18.70;;
34278;SDS011;20538;51.528;9.942;2023-05-06T01:34:39;28.02;;;17.90;;
34278;SDS011;20538;51.528;9.942;2023-05-06T01:37:28;24.98;;;18.00;;
34278;SDS011;20538;51.528;9.942;2023-05-06T01:39:58;25.85;;;17.98;;
34278;SDS011;20538;51.528;9.942;2023-05-06T01:42:26;24.77;;;16.83;;
34278;SDS011;20538;51.528;9.942;2023-05-06T01:44:54;24.63;;;17.20;;
34278;SDS011;20538;51.528;9.942;2023-05-06T01:47:22;23.75;;;17.08;;
34278;SDS011;20538;51.528;9.942;2023-05-06T01:49:48;25.20;;;16.95;;
34278;SDS011;20538;51.528;9.942;2023-05-06T01:52:14;25.85;;;17.38;;
34278;SDS011;20538;51.528;9.942;2023-05-06T01:54:40;26.55;;;16.75;;
34278;SDS011;20538;51.528;9.942;2023-05-06T01:57:06;28.50;;;17.23;;
34278;SDS011;20538;51.528;9.942;2023-05-06T01:59:31;30.10;;;17.20;;
34278;SDS011;20538;51.528;9.942;2023-05-06T02:01:57;29.02;;;17.75;;
34278;SDS011;20538;51.528;9.942;2023-05-06T02:04:22;22.83;;;16.23;;
34278;SDS011;20538;51.528;9.942;2023-05-06T02:06:48;24.33;;;17.08;;
34278;SDS011;20538;51.528;9.942;2023-05-06T02:09:14;22.77;;;17.00;;
34278;SDS011;20538;51.528;9.942;2023-05-06T02:11:39;24.05;;;16.92;;
34278;SDS011;20538;51.528;9.942;2023-05-06T02:14:05;26.25;;;17.38;;
34278;SDS011;20538;51.528;9.942;2023-05-06T02:16:31;24.60;;;16.92;;
34278;SDS011;20538;51.528;9.942;2023-05-06T02:18:56;27.27;;;16.05;;
34278;SDS011;20538;51.528;9.942;2023-05-06T02:21:22;24.83;;;16.73;;
34278;SDS011;20538;51.528;9.942;2023-05-06T02:23:47;25.83;;;17.35;;
34278;SDS011;20538;51.528;9.942;2023-05-06T02:26:14;22.35;;;16.35;;
34278;SDS011;20538;51.528;9.942;2023-05-06T02:28:40;23.83;;;16.48;;
34278;SDS011;20538;51.528;9.942;2023-05-06T02:31:06;22.50;;;16.05;;
34278;SDS011;20538;51.528;9.942;2023-05-06T02:33:32;22.17;;;15.80;;
34278;SDS011;20538;51.528;9.942;2023-05-06T02:35:57;29.23;;;16.98;;
34278;SDS011;20538;51.528;9.942;2023-05-06T02:38:23;22.10;;;14.55;;
34278;SDS011;20538;51.528;9.942;2023-05-06T02:40:50;22.23;;;15.85;;
34278;SDS011;20538;51.528;9.942;2023-05-06T02:43:16;22.63;;;15.10;;
34278;SDS011;20538;51.528;9.942;2023-05-06T02:45:41;19.30;;;13.90;;
34278;SDS011;20538;51.528;9.942;2023-05-06T02:48:07;22.65;;;14.80;;
34278;SDS011;20538;51.528;9.942;2023-05-06T02:50:33;22.25;;;14.57;;
34278;SDS011;20538;51.528;9.942;2023-05-06T02:53:00;23.75;;;15.90;;
34278;SDS011;20538;51.528;9.942;2023-05-06T02:55:25;20.02;;;14.35;;
34278;SDS011;20538;51.528;9.942;2023-05-06T02:57:51;21.27;;;14.45;;
34278;SDS011;20538;51.528;9.942;2023-05-06T03:00:17;20.80;;;14.43;;
34278;SDS011;20538;51.528;9.942;2023-05-06T03:02:42;22.35;;;14.35;;
34278;SDS011;20538;51.528;9.942;2023-05-06T03:05:08;22.60;;;14.40;;
34278;SDS011;20538;51.528;9.942;2023-05-06T03:07:34;22.95;;;15.15;;
34278;SDS011;20538;51.528;9.942;2023-05-06T03:10:00;23.40;;;13.85;;
34278;SDS011;20538;51.528;9.942;2023-05-06T03:12:26;22.65;;;14.48;;
34278;SDS011;20538;51.528;9.942;2023-05-06T03:14:52;17.80;;;13.00;;
34278;SDS011;20538;51.528;9.942;2023-05-06T03:17:18;20.67;;;14.10;;
34278;SDS011;20538;51.528;9.942;2023-05-06T03:19:43;19.63;;;13.93;;
34278;SDS011;20538;51.528;9.942;2023-05-06T03:22:09;21.27;;;14.00;;
34278;SDS011;20538;51.528;9.942;2023-05-06T03:24:35;21.90;;;14.13;;
34278;SDS011;20538;51.528;9.942;2023-05-06T03:27:00;21.45;;;13.85;;
34278;SDS011;20538;51.528;9.942;2023-05-06T03:29:26;19.83;;;14.07;;
34278;SDS011;20538;51.528;9.942;2023-05-06T03:31:54;23.17;;;15.73;;
34278;SDS011;20538;51.528;9.942;2023-05-06T03:34:20;21.55;;;14.27;;
34278;SDS011;20538;51.528;9.942;2023-05-06T03:36:45;22.05;;;15.13;;
34278;SDS011;20538;51.528;9.942;2023-05-06T03:39:11;20.38;;;14.63;;
34278;SDS011;20538;51.528;9.942;2023-05-06T03:41:37;29.63;;;14.80;;
34278;SDS011;20538;51.528;9.942;2023-05-06T03:44:02;25.02;;;15.18;;
34278;SDS011;20538;51.528;9.942;2023-05-06T03:46:28;20.05;;;14.38;;
34278;SDS011;20538;51.528;9.942;2023-05-06T03:48:54;20.80;;;14.07;;
34278;SDS011;20538;51.528;9.942;2023-05-06T03:51:19;24.58;;;15.10;;
34278;SDS011;20538;51.528;9.942;2023-05-06T03:53:45;19.00;;;13.27;;
34278;SDS011;20538;51.528;9.942;2023-05-06T03:56:11;19.48;;;14.50;;
34278;SDS011;20538;51.528;9.942;2023-05-06T03:58:36;21.90;;;14.57;;
34278;SDS011;20538;51.528;9.942;2023-05-06T04:01:02;20.55;;;14.70;;
34278;SDS011;20538;51.528;9.942;2023-05-06T04:03:34;22.75;;;14.57;;
34278;SDS011;20538;51.528;9.942;2023-05-06T04:06:00;20.52;;;14.48;;
34278;SDS011;20538;51.528;9.942;2023-05-06T04:08:26;19.75;;;13.60;;
34278;SDS011;20538;51.528;9.942;2023-05-06T04:10:52;20.92;;;14.05;;
34278;SDS011;20538;51.528;9.942;2023-05-06T04:13:18;18.98;;;13.18;;
34278;SDS011;20538;51.528;9.942;2023-05-06T04:15:44;21.95;;;13.82;;
34278;SDS011;20538;51.528;9.942;2023-05-06T04:18:10;18.75;;;13.07;;
34278;SDS011;20538;51.528;9.942;2023-05-06T04:20:35;19.35;;;12.88;;
34278;SDS011;20538;51.528;9.942;2023-05-06T04:23:01;20.20;;;13.15;;
34278;SDS011;20538;51.528;9.942;2023-05-06T04:25:26;18.52;;;12.52;;
34278;SDS011;20538;51.528;9.942;2023-05-06T04:27:52;18.15;;;12.20;;
34278;SDS011;20538;51.528;9.942;2023-05-06T04:30:18;16.10;;;11.73;;
34278;SDS011;20538;51.528;9.942;2023-05-06T04:32:45;19.92;;;13.45;;
34278;SDS011;20538;51.528;9.942;2023-05-06T04:35:10;19.10;;;13.27;;
34278;SDS011;20538;51.528;9.942;2023-05-06T04:37:36;22.15;;;13.55;;
34278;SDS011;20538;51.528;9.942;2023-05-06T04:40:02;19.95;;;13.45;;
34278;SDS011;20538;51.528;9.942;2023-05-06T04:42:28;21.13;;;14.35;;
34278;SDS011;20538;51.528;9.942;2023-05-06T04:44:54;22.67;;;14.32;;
34278;SDS011;20538;51.528;9.942;2023-05-06T04:47:19;20.38;;;14.50;;
34278;SDS011;20538;51.528;9.942;2023-05-06T04:49:46;21.83;;;14.85;;
34278;SDS011;20538;51.528;9.942;2023-05-06T04:52:11;22.50;;;14.38;;
34278;SDS011;20538;51.528;9.942;2023-05-06T04:54:37;22.80;;;14.57;;
34278;SDS011;20538;51.528;9.942;2023-05-06T04:57:02;23.65;;;16.10;;
34278;SDS011;20538;51.528;9.942;2023-05-06T04:59:28;20.83;;;14.18;;
34278;SDS011;20538;51.528;9.942;2023-05-06T05:01:53;23.55;;;15.25;;
34278;SDS011;20538;51.528;9.942;2023-05-06T05:04:19;20.88;;;13.45;;
34278;SDS011;20538;51.528;9.942;2023-05-06T05:06:45;15.93;;;10.30;;
34278;SDS011;20538;51.528;9.942;2023-05-06T05:09:10;15.32;;;11.15;;
34278;SDS011;20538;51.528;9.942;2023-05-06T05:11:36;16.58;;;11.27;;
34278;SDS011;20538;51.528;9.942;2023-05-06T05:14:02;19.02;;;10.73;;
34278;SDS011;20538;51.528;9.942;2023-05-06T05:16:28;17.58;;;11.35;;
34278;SDS011;20538;51.528;9.942;2023-05-06T05:18:54;16.70;;;11.75;;
34278;SDS011;20538;51.528;9.942;2023-05-06T05:21:19;21.73;;;11.65;;
34278;SDS011;20538;51.528;9.942;2023-05-06T05:23:45;11.80;;;9.35;;
34278;SDS011;20538;51.528;9.942;2023-05-06T05:26:10;11.20;;;8.48;;
34278;SDS011;20538;51.528;9.942;2023-05-06T05:28:36;13.32;;;9.43;;
34278;SDS011;20538;51.528;9.942;2023-05-06T05:31:02;11.25;;;7.70;;
34278;SDS011;20538;51.528;9.942;2023-05-06T05:33:28;11.88;;;8.05;;
34278;SDS011;20538;51.528;9.942;2023-05-06T05:35:54;11.63;;;7.55;;
34278;SDS011;20538;51.528;9.942;2023-05-06T05:38:20;11.13;;;7.80;;
34278;SDS011;20538;51.528;9.942;2023-05-06T05:40:46;11.63;;;8.15;;
34278;SDS011;20538;51.528;9.942;2023-05-06T05:43:11;11.35;;;8.18;;
34278;SDS011;20538;51.528;9.942;2023-05-06T05:45:37;11.82;;;8.48;;
34278;SDS011;20538;51.528;9.942;2023-05-06T05:48:03;15.35;;;7.85;;
34278;SDS011;20538;51.528;9.942;2023-05-06T05:50:28;12.75;;;8.80;;
34278;SDS011;20538;51.528;9.942;2023-05-06T05:52:54;11.52;;;8.50;;
34278;SDS011;20538;51.528;9.942;2023-05-06T05:55:20;13.82;;;8.75;;
34278;SDS011;20538;51.528;9.942;2023-05-06T05:57:45;17.20;;;9.82;;
34278;SDS011;20538;51.528;9.942;2023-05-06T06:00:11;15.63;;;10.00;;
34278;SDS011;20538;51.528;9.942;2023-05-06T06:02:37;15.38;;;10.35;;
34278;SDS011;20538;51.528;9.942;2023-05-06T06:05:03;16.35;;;10.27;;
34278;SDS011;20538;51.528;9.942;2023-05-06T06:07:29;23.63;;;10.88;;
34278;SDS011;20538;51.528;9.942;2023-05-06T06:09:54;16.15;;;9.70;;
34278;SDS011;20538;51.528;9.942;2023-05-06T06:12:21;17.00;;;8.80;;
34278;SDS011;20538;51.528;9.942;2023-05-06T06:14:47;14.82;;;9.68;;
34278;SDS011;20538;51.528;9.942;2023-05-06T06:17:15;15.18;;;9.65;;
34278;SDS011;20538;51.528;9.942;2023-05-06T06:19:44;13.60;;;8.85;;
34278;SDS011;20538;51.528;9.942;2023-05-06T06:22:11;14.88;;;9.50;;
34278;SDS011;20538;51.528;9.942;2023-05-06T06:24:36;14.40;;;8.70;;
34278;SDS011;20538;51.528;9.942;2023-05-06T06:27:02;14.20;;;9.55;;
34278;SDS011;20538;51.528;9.942;2023-05-06T06:29:28;15.75;;;9.10;;
34278;SDS011;20538;51.528;9.942;2023-05-06T06:31:53;13.05;;;8.00;;
34278;SDS011;20538;51.528;9.942;2023-05-06T06:34:22;12.45;;;8.30;;
34278;SDS011;20538;51.528;9.942;2023-05-06T06:36:48;11.43;;;8.02;;
34278;SDS011;20538;51.528;9.942;2023-05-06T06:39:17;12.73;;;8.50;;
34278;SDS011;20538;51.528;9.942;2023-05-06T06:41:42;11.43;;;7.72;;
34278;SDS011;20538;51.528;9.942;2023-05-06T06:44:08;13.57;;;8.30;;
34278;SDS011;20538;51.528;9.942;2023-05-06T06:46:34;13.73;;;7.85;;
34278;SDS011;20538;51.528;9.942;2023-05-06T06:48:59;12.10;;;7.95;;
34278;SDS011;20538;51.528;9.942;2023-05-06T06:51:28;12.50;;;7.93;;
34278;SDS011;20538;51.528;9.942;2023-05-06T06:53:57;11.90;;;7.78;;
34278;SDS011;20538;51.528;9.942;2023-05-06T06:56:23;11.70;;;7.55;;
34278;SDS011;20538;51.528;9.942;2023-05-06T06:58:48;9.93;;;7.07;;
34278;SDS011;20538;51.528;9.942;2023-05-06T07:01:14;11.48;;;7.68;;
34278;SDS011;20538;51.528;9.942;2023-05-06T07:03:39;15.48;;;9.02;;
34278;SDS011;20538;51.528;9.942;2023-05-06T07:06:05;12.32;;;7.10;;
34278;SDS011;20538;51.528;9.942;2023-05-06T07:08:31;9.52;;;7.68;;
34278;SDS011;20538;51.528;9.942;2023-05-06T07:10:56;10.23;;;6.47;;
34278;SDS011;20538;51.528;9.942;2023-05-06T07:13:22;11.25;;;7.32;;
34278;SDS011;20538;51.528;9.942;2023-05-06T07:15:48;10.95;;;6.82;;
34278;SDS011;20538;51.528;9.942;2023-05-06T07:18:14;10.02;;;6.47;;
34278;SDS011;20538;51.528;9.942;2023-05-06T07:20:39;9.40;;;6.07;;
34278;SDS011;20538;51.528;9.942;2023-05-06T07:23:05;10.20;;;7.15;;
34278;SDS011;20538;51.528;9.942;2023-05-06T07:25:31;10.73;;;7.20;;
34278;SDS011;20538;51.528;9.942;2023-05-06T07:27:56;11.35;;;6.53;;
34278;SDS011;20538;51.528;9.942;2023-05-06T07:30:22;8.50;;;5.75;;
34278;SDS011;20538;51.528;9.942;2023-05-06T07:32:48;8.52;;;5.15;;
34278;SDS011;20538;51.528;9.942;2023-05-06T07:35:13;8.05;;;5.10;;
34278;SDS011;20538;51.528;9.942;2023-05-06T07:37:39;8.65;;;5.60;;
34278;SDS011;20538;51.528;9.942;2023-05-06T07:40:05;9.35;;;5.13;;
34278;SDS011;20538;51.528;9.942;2023-05-06T07:42:31;8.50;;;5.28;;
34278;SDS011;20538;51.528;9.942;2023-05-06T07:44:57;8.27;;;5.32;;
34278;SDS011;20538;51.528;9.942;2023-05-06T07:47:26;13.38;;;6.00;;
34278;SDS011;20538;51.528;9.942;2023-05-06T07:49:56;9.98;;;5.88;;
34278;SDS011;20538;51.528;9.942;2023-05-06T07:52:22;10.57;;;5.82;;
34278;SDS011;20538;51.528;9.942;2023-05-06T07:54:48;8.13;;;5.10;;
34278;SDS011;20538;51.528;9.942;2023-05-06T07:57:15;9.77;;;5.63;;
34278;SDS011;20538;51.528;9.942;2023-05-06T07:59:46;8.43;;;5.50;;
34278;SDS011;20538;51.528;9.942;2023-05-06T08:02:13;6.97;;;5.35;;
34278;SDS011;20538;51.528;9.942;2023-05-06T08:04:39;5.90;;;4.28;;
34278;SDS011;20538;51.528;9.942;2023-05-06T08:07:05;7.15;;;4.03;;
34278;SDS011;20538;51.528;9.942;2023-05-06T08:09:31;6.05;;;4.03;;
34278;SDS011;20538;51.528;9.942;2023-05-06T08:11:57;7.18;;;4.55;;
34278;SDS011;20538;51.528;9.942;2023-05-06T08:14:23;8.00;;;4.35;;
34278;SDS011;20538;51.528;9.942;2023-05-06T08:16:52;7.53;;;4.15;;
34278;SDS011;20538;51.528;9.942;2023-05-06T08:19:19;6.22;;;3.72;;
34278;SDS011;20538;51.528;9.942;2023-05-06T08:21:45;5.90;;;3.78;;
34278;SDS011;20538;51.528;9.942;2023-05-06T08:24:12;7.13;;;3.92;;
34278;SDS011;20538;51.528;9.942;2023-05-06T08:26:38;6.68;;;4.45;;
34278;SDS011;20538;51.528;9.942;2023-05-06T08:29:04;7.70;;;4.78;;
34278;SDS011;20538;51.528;9.942;2023-05-06T08:31:31;6.95;;;4.30;;
34278;SDS011;20538;51.528;9.942;2023-05-06T08:33:57;6.25;;;4.45;;
34278;SDS011;20538;51.528;9.942;2023-05-06T08:36:26;7.43;;;4.43;;
34278;SDS011;20538;51.528;9.942;2023-05-06T08:38:51;6.57;;;3.90;;
34278;SDS011;20538;51.528;9.942;2023-05-06T08:41:18;5.95;;;4.10;;
34278;SDS011;20538;51.528;9.942;2023-05-06T08:43:47;6.40;;;3.67;;
34278;SDS011;20538;51.528;9.942;2023-05-06T08:46:14;6.30;;;3.20;;
34278;SDS011;20538;51.528;9.942;2023-05-06T08:48:40;5.60;;;3.78;;
34278;SDS011;20538;51.528;9.942;2023-05-06T08:51:06;7.60;;;3.17;;
34278;SDS011;20538;51.528;9.942;2023-05-06T08:53:33;5.78;;;3.38;;
34278;SDS011;20538;51.528;9.942;2023-05-06T08:56:03;4.15;;;2.90;;
34278;SDS011;20538;51.528;9.942;2023-05-06T08:58:32;4.70;;;2.88;;
34278;SDS011;20538;51.528;9.942;2023-05-06T09:00:59;4.43;;;2.58;;
34278;SDS011;20538;51.528;9.942;2023-05-06T09:03:26;5.68;;;3.20;;
34278;SDS011;20538;51.528;9.942;2023-05-06T09:05:52;5.82;;;3.67;;
34278;SDS011;20538;51.528;9.942;2023-05-06T09:08:18;5.82;;;4.20;;
34278;SDS011;20538;51.528;9.942;2023-05-06T09:10:44;4.78;;;3.55;;
34278;SDS011;20538;51.528;9.942;2023-05-06T09:13:16;5.13;;;2.95;;
34278;SDS011;20538;51.528;9.942;2023-05-06T09:15:46;4.18;;;2.97;;
34278;SDS011;20538;51.528;9.942;2023-05-06T09:18:14;5.07;;;3.13;;
34278;SDS011;20538;51.528;9.942;2023-05-06T09:20:44;7.03;;;3.53;;
34278;SDS011;20538;51.528;9.942;2023-05-06T09:23:14;7.35;;;3.85;;
34278;SDS011;20538;51.528;9.942;2023-05-06T09:25:42;6.85;;;3.38;;
34278;SDS011;20538;51.528;9.942;2023-05-06T09:28:10;5.00;;;3.58;;
34278;SDS011;20538;51.528;9.942;2023-05-06T09:30:37;5.25;;;3.28;;
34278;SDS011;20538;51.528;9.942;2023-05-06T09:33:06;6.55;;;3.10;;
34278;SDS011;20538;51.528;9.942;2023-05-06T09:35:36;4.85;;;2.72;;
34278;SDS011;20538;51.528;9.942;2023-05-06T09:38:03;4.55;;;2.40;;
34278;SDS011;20538;51.528;9.942;2023-05-06T09:40:29;4.10;;;2.35;;
34278;SDS011;20538;51.528;9.942;2023-05-06T09:42:55;4.60;;;2.47;;
34278;SDS011;20538;51.528;9.942;2023-05-06T09:45:22;4.28;;;2.53;;
34278;SDS011;20538;51.528;9.942;2023-05-06T09:47:48;3.13;;;2.40;;
34278;SDS011;20538;51.528;9.942;2023-05-06T09:50:14;4.82;;;2.53;;
34278;SDS011;20538;51.528;9.942;2023-05-06T09:52:43;3.85;;;2.60;;
34278;SDS011;20538;51.528;9.942;2023-05-06T09:55:10;5.78;;;2.20;;
34278;SDS011;20538;51.528;9.942;2023-05-06T09:57:36;4.38;;;2.78;;
34278;SDS011;20538;51.528;9.942;2023-05-06T10:00:02;3.78;;;2.42;;
34278;SDS011;20538;51.528;9.942;2023-05-06T10:02:31;5.38;;;2.40;;
34278;SDS011;20538;51.528;9.942;2023-05-06T10:04:57;3.55;;;2.28;;
34278;SDS011;20538;51.528;9.942;2023-05-06T10:07:23;5.85;;;2.47;;
34278;SDS011;20538;51.528;9.942;2023-05-06T10:09:52;4.85;;;2.33;;
34278;SDS011;20538;51.528;9.942;2023-05-06T10:12:18;5.47;;;2.47;;
34278;SDS011;20538;51.528;9.942;2023-05-06T10:14:44;2.83;;;2.45;;
34278;SDS011;20538;51.528;9.942;2023-05-06T10:17:10;4.55;;;1.95;;
34278;SDS011;20538;51.528;9.942;2023-05-06T10:19:38;6.40;;;2.40;;
34278;SDS011;20538;51.528;9.942;2023-05-06T10:22:21;3.85;;;2.30;;
34278;SDS011;20538;51.528;9.942;2023-05-06T10:25:15;4.18;;;2.40;;
34278;SDS011;20538;51.528;9.942;2023-05-06T10:27:54;3.80;;;2.22;;
34278;SDS011;20538;51.528;9.942;2023-05-06T10:30:19;4.60;;;2.53;;
34278;SDS011;20538;51.528;9.942;2023-05-06T10:32:46;2.28;;;2.00;;
34278;SDS011;20538;51.528;9.942;2023-05-06T10:35:19;5.22;;;2.10;;
34278;SDS011;20538;51.528;9.942;2023-05-06T10:37:55;6.90;;;2.70;;
34278;SDS011;20538;51.528;9.942;2023-05-06T10:40:22;5.50;;;2.03;;
34278;SDS011;20538;51.528;9.942;2023-05-06T10:42:48;5.88;;;2.10;;
34278;SDS011;20538;51.528;9.942;2023-05-06T10:45:15;3.92;;;2.10;;
34278;SDS011;20538;51.528;9.942;2023-05-06T10:50:25;3.05;;;2.33;;
34278;SDS011;20538;51.528;9.942;2023-05-06T10:52:55;3.40;;;2.10;;
34278;SDS011;20538;51.528;9.942;2023-05-06T10:55:24;3.33;;;2.10;;
34278;SDS011;20538;51.528;9.942;2023-05-06T10:58:05;4.75;;;1.88;;
34278;SDS011;20538;51.528;9.942;2023-05-06T11:00:51;2.38;;;1.83;;
34278;SDS011;20538;51.528;9.942;2023-05-06T11:03:22;3.75;;;1.63;;
34278;SDS011;20538;51.528;9.942;2023-05-06T11:05:48;4.07;;;1.55;;
34278;SDS011;20538;51.528;9.942;2023-05-06T11:08:22;4.25;;;1.80;;
34278;SDS011;20538;51.528;9.942;2023-05-06T11:10:51;4.53;;;1.95;;
34278;SDS011;20538;51.528;9.942;2023-05-06T11:15:54;2.45;;;1.55;;
34278;SDS011;20538;51.528;9.942;2023-05-06T11:24:11;4.05;;;1.73;;
34278;SDS011;20538;51.528;9.942;2023-05-06T11:26:17;5.85;;;2.20;;
34278;SDS011;20538;51.528;9.942;2023-05-06T11:28:44;3.90;;;1.23;;
34278;SDS011;20538;51.528;9.942;2023-05-06T11:31:11;2.05;;;1.40;;
34278;SDS011;20538;51.528;9.942;2023-05-06T11:33:43;3.42;;;1.60;;
34278;SDS011;20538;51.528;9.942;2023-05-06T11:36:14;3.45;;;1.42;;
34278;SDS011;20538;51.528;9.942;2023-05-06T11:41:10;2.22;;;1.35;;
34278;SDS011;20538;51.528;9.942;2023-05-06T11:43:36;3.90;;;1.45;;
34278;SDS011;20538;51.528;9.942;2023-05-06T11:46:02;3.80;;;1.83;;
34278;SDS011;20538;51.528;9.942;2023-05-06T11:48:28;3.83;;;2.30;;
34278;SDS011;20538;51.528;9.942;2023-05-06T11:50:54;2.50;;;1.60;;
34278;SDS011;20538;51.528;9.942;2023-05-06T11:53:21;4.03;;;1.90;;
34278;SDS011;20538;51.528;9.942;2023-05-06T11:55:48;2.95;;;1.33;;
34278;SDS011;20538;51.528;9.942;2023-05-06T11:58:16;3.08;;;1.55;;
34278;SDS011;20538;51.528;9.942;2023-05-06T12:00:47;4.28;;;1.25;;
34278;SDS011;20538;51.528;9.942;2023-05-06T12:03:17;2.80;;;1.58;;
34278;SDS011;20538;51.528;9.942;2023-05-06T12:05:44;2.13;;;1.20;;
34278;SDS011;20538;51.528;9.942;2023-05-06T12:08:12;3.58;;;1.50;;
34278;SDS011;20538;51.528;9.942;2023-05-06T12:10:45;2.00;;;1.20;;
34278;SDS011;20538;51.528;9.942;2023-05-06T12:13:11;4.95;;;1.42;;
34278;SDS011;20538;51.528;9.942;2023-05-06T12:15:38;2.50;;;1.40;;
34278;SDS011;20538;51.528;9.942;2023-05-06T12:18:04;4.05;;;1.50;;
34278;SDS011;20538;51.528;9.942;2023-05-06T12:20:30;2.10;;;1.30;;
34278;SDS011;20538;51.528;9.942;2023-05-06T12:23:06;1.92;;;1.25;;
34278;SDS011;20538;51.528;9.942;2023-05-06T12:25:33;3.47;;;0.98;;
34278;SDS011;20538;51.528;9.942;2023-05-06T12:27:59;7.03;;;1.30;;
34278;SDS011;20538;51.528;9.942;2023-05-06T12:30:31;2.83;;;1.10;;
34278;SDS011;20538;51.528;9.942;2023-05-06T12:32:58;1.70;;;1.33;;
34278;SDS011;20538;51.528;9.942;2023-05-06T12:35:26;3.53;;;1.40;;
34278;SDS011;20538;51.528;9.942;2023-05-06T12:37:53;4.75;;;1.30;;
34278;SDS011;20538;51.528;9.942;2023-05-06T12:40:19;1.75;;;1.20;;
34278;SDS011;20538;51.528;9.942;2023-05-06T12:42:51;4.05;;;1.50;;
34278;SDS011;20538;51.528;9.942;2023-05-06T12:45:20;1.45;;;1.10;;
34278;SDS011;20538;51.528;9.942;2023-05-06T12:47:56;4.95;;;1.25;;
34278;SDS011;20538;51.528;9.942;2023-05-06T12:50:32;1.77;;;0.95;;
34278;SDS011;20538;51.528;9.942;2023-05-06T12:52:59;4.82;;;1.50;;
34278;SDS011;20538;51.528;9.942;2023-05-06T12:55:25;6.07;;;1.27;;
34278;SDS011;20538;51.528;9.942;2023-05-06T12:57:51;1.58;;;1.20;;
34278;SDS011;20538;51.528;9.942;2023-05-06T13:00:17;4.57;;;1.10;;
34278;SDS011;20538;51.528;9.942;2023-05-06T13:02:43;3.08;;;1.10;;
34278;SDS011;20538;51.528;9.942;2023-05-06T13:05:10;2.15;;;1.38;;
34278;SDS011;20538;51.528;9.942;2023-05-06T13:07:35;1.38;;;1.00;;
34278;SDS011;20538;51.528;9.942;2023-05-06T13:10:01;4.85;;;1.10;;
34278;SDS011;20538;51.528;9.942;2023-05-06T13:12:27;1.23;;;0.80;;
34278;SDS011;20538;51.528;9.942;2023-05-06T13:14:53;1.85;;;1.10;;
34278;SDS011;20538;51.528;9.942;2023-05-06T13:17:20;2.85;;;1.35;;
34278;SDS011;20538;51.528;9.942;2023-05-06T13:19:46;1.02;;;0.93;;
34278;SDS011;20538;51.528;9.942;2023-05-06T13:22:12;3.85;;;1.25;;
34278;SDS011;20538;51.528;9.942;2023-05-06T13:24:38;2.40;;;1.35;;
34278;SDS011;20538;51.528;9.942;2023-05-06T13:27:04;2.35;;;1.23;;
34278;SDS011;20538;51.528;9.942;2023-05-06T13:29:29;2.72;;;1.30;;
34278;SDS011;20538;51.528;9.942;2023-05-06T13:31:55;2.28;;;1.05;;
34278;SDS011;20538;51.528;9.942;2023-05-06T13:34:21;1.83;;;1.40;;
34278;SDS011;20538;51.528;9.942;2023-05-06T13:36:47;1.42;;;1.05;;
34278;SDS011;20538;51.528;9.942;2023-05-06T13:39:13;3.00;;;1.40;;
34278;SDS011;20538;51.528;9.942;2023-05-06T13:41:44;2.50;;;1.30;;
34278;SDS011;20538;51.528;9.942;2023-05-06T13:44:11;1.77;;;0.90;;
34278;SDS011;20538;51.528;9.942;2023-05-06T13:46:37;1.85;;;1.10;;
34278;SDS011;20538;51.528;9.942;2023-05-06T13:49:03;2.72;;;0.98;;
34278;SDS011;20538;51.528;9.942;2023-05-06T13:51:29;3.40;;;1.23;;
34278;SDS011;20538;51.528;9.942;2023-05-06T13:53:57;5.18;;;1.25;;
34278;SDS011;20538;51.528;9.942;2023-05-06T13:56:23;2.72;;;1.30;;
34278;SDS011;20538;51.528;9.942;2023-05-06T13:58:48;2.67;;;1.30;;
34278;SDS011;20538;51.528;9.942;2023-05-06T14:01:14;3.22;;;1.42;;
34278;SDS011;20538;51.528;9.942;2023-05-06T14:03:40;1.55;;;1.30;;
34278;SDS011;20538;51.528;9.942;2023-05-06T14:06:06;2.00;;;1.27;;
34278;SDS011;20538;51.528;9.942;2023-05-06T14:08:32;1.50;;;1.10;;
34278;SDS011;20538;51.528;9.942;2023-05-06T14:10:58;3.58;;;1.13;;
34278;SDS011;20538;51.528;9.942;2023-05-06T14:13:24;1.65;;;1.23;;
34278;SDS011;20538;51.528;9.942;2023-05-06T14:15:50;4.10;;;1.02;;
34278;SDS011;20538;51.528;9.942;2023-05-06T14:18:16;1.95;;;1.17;;
34278;SDS011;20538;51.528;9.942;2023-05-06T14:20:42;1.98;;;1.00;;
34278;SDS011;20538;51.528;9.942;2023-05-06T14:23:07;2.50;;;1.10;;
34278;SDS011;20538;51.528;9.942;2023-05-06T14:25:33;3.63;;;1.50;;
34278;SDS011;20538;51.528;9.942;2023-05-06T14:27:59;1.08;;;0.90;;
34278;SDS011;20538;51.528;9.942;2023-05-06T14:30:25;2.28;;;1.25;;
34278;SDS011;20538;51.528;9.942;2023-05-06T14:32:51;1.88;;;1.20;;
34278;SDS011;20538;51.528;9.942;2023-05-06T14:35:16;3.03;;;1.30;;
34278;SDS011;20538;51.528;9.942;2023-05-06T14:37:42;2.00;;;1.10;;
34278;SDS011;20538;51.528;9.942;2023-05-06T14:40:08;2.80;;;1.20;;
34278;SDS011;20538;51.528;9.942;2023-05-06T14:42:34;2.40;;;1.20;;
34278;SDS011;20538;51.528;9.942;2023-05-06T14:45:00;1.98;;;1.38;;
34278;SDS011;20538;51.528;9.942;2023-05-06T14:47:26;6.03;;;1.15;;
34278;SDS011;20538;51.528;9.942;2023-05-06T14:49:51;2.90;;;1.55;;
34278;SDS011;20538;51.528;9.942;2023-05-06T14:52:17;3.40;;;1.65;;
34278;SDS011;20538;51.528;9.942;2023-05-06T14:54:42;1.25;;;1.15;;